Terminal Aerodrome Forecast
Issued by NWS

Home | Current Version | Previous Version | Text Only | Print | Product List | Glossary On
Versions: 1 2 3 4 5 6 7 8 9 10 11 12 13
000
FTUS46 KSTO 301700
TAFRBL
TAF
KRBL 301720Z 3018/3118 35008KT P6SM SKC
     FM302000 35017G25KT P6SM SCT100
     FM310300 33012KT P6SM SKC=

USA.gov is the U.S. government's official web portal to all federal, state and local government web resources and services.